createdAt,value
2022-11-04T00:00:29.877Z,100026.41
2022-11-04T00:02:57.864Z,100023.72
2022-11-04T00:05:25.288Z,100010.13
2022-11-04T00:08:10.359Z,100014.34
2022-11-04T00:11:02.150Z,100012.81
2022-11-04T00:13:30.336Z,100011.78
2022-11-04T00:16:19.578Z,100012.81
2022-11-04T00:18:46.992Z,100008.38
2022-11-04T00:21:32.166Z,100005.78
2022-11-04T00:24:17.476Z,100007.63
2022-11-04T00:27:03.951Z,100006.81
2022-11-04T00:29:31.542Z,100015.13
2022-11-04T00:32:16.617Z,100008.31
2022-11-04T00:34:44.053Z,100003.31
2022-11-04T00:37:11.720Z,99995.66
2022-11-04T00:39:39.295Z,99989.63
2022-11-04T00:42:08.150Z,99994.16
2022-11-04T00:44:35.585Z,99987.13
2022-11-04T00:47:02.998Z,99986.28
2022-11-04T00:49:30.822Z,99985.31
2022-11-04T00:51:58.204Z,99990.34
2022-11-04T00:54:25.637Z,99989.38
2022-11-04T00:56:53.985Z,99989.53
2022-11-04T00:59:22.746Z,99991.97
2022-11-04T01:01:50.258Z,99983.47
2022-11-04T01:04:17.934Z,99975.06
2022-11-04T01:06:45.725Z,99974.22
2022-11-04T01:09:13.979Z,99971.84
2022-11-04T01:11:41.452Z,99965.50
2022-11-04T01:14:08.942Z,99960.59
2022-11-04T01:16:37.734Z,99959.53
2022-11-04T01:19:05.631Z,99955.53
2022-11-04T01:21:33.184Z,99958.31
2022-11-04T01:24:01.386Z,99955.53
2022-11-04T01:26:29.845Z,99949.41
2022-11-04T01:28:58.862Z,99951.97
2022-11-04T01:31:28.020Z,99954.47
2022-11-04T01:33:57.828Z,99945.81
2022-11-04T01:36:25.469Z,99945.63
2022-11-04T01:38:53.355Z,99948.31
2022-11-04T01:41:23.162Z,99958.66
2022-11-04T01:43:52.528Z,99955.00
2022-11-04T01:46:32.166Z,99953.31
2022-11-04T01:49:09.829Z,99955.81
2022-11-04T01:51:41.247Z,99957.66
2022-11-04T01:54:10.636Z,99967.03
2022-11-04T01:56:39.858Z,99962.84
2022-11-04T01:59:12.539Z,99959.44
2022-11-04T02:01:40.204Z,99950.19
2022-11-04T02:04:29.987Z,99949.84
2022-11-04T02:07:00.189Z,99939.63
2022-11-04T02:09:30.056Z,99944.75
2022-11-04T02:12:15.426Z,99940.47
2022-11-04T02:14:44.024Z,99935.47
2022-11-04T02:17:25.200Z,99927.59
2022-11-04T02:20:30.877Z,99930.41
2022-11-04T02:23:28.448Z,99928.66
2022-11-04T02:26:24.152Z,99925.47
2022-11-04T02:29:09.795Z,99924.47
2022-11-04T02:31:45.911Z,99922.56
2022-11-04T02:34:20.924Z,99914.72
2022-11-04T02:36:58.346Z,99910.56
2022-11-04T02:39:36.054Z,99916.81
2022-11-04T02:42:12.151Z,99914.06
2022-11-04T02:44:50.653Z,99906.41
2022-11-04T02:47:23.079Z,99916.72
2022-11-04T02:49:55.779Z,99915.94
2022-11-04T02:52:28.779Z,99905.78
2022-11-04T02:55:01.908Z,99915.91
2022-11-04T02:57:32.486Z,99908.25
2022-11-04T03:00:03.651Z,99907.59
2022-11-04T03:02:35.632Z,99898.03
2022-11-04T03:05:08.279Z,99895.53
2022-11-04T03:07:39.104Z,99888.50
2022-11-04T03:10:14.041Z,99896.94
2022-11-04T03:12:48.641Z,99908.03
2022-11-04T03:15:23.827Z,99907.22
2022-11-04T03:18:04.097Z,99910.38
2022-11-04T03:20:32.503Z,99907.41
2022-11-04T03:23:00.863Z,99898.59
2022-11-04T03:25:33.110Z,99904.81
2022-11-04T03:28:06.302Z,99898.13
2022-11-04T03:30:40.954Z,99885.53
2022-11-04T03:33:16.514Z,99897.22
2022-11-04T03:35:43.950Z,99897.63
2022-11-04T03:38:11.673Z,99899.28
2022-11-04T03:40:39.172Z,99921.94
2022-11-04T03:43:11.955Z,99943.25
2022-11-04T03:45:42.946Z,99931.13
2022-11-04T03:48:10.869Z,99936.44
2022-11-04T03:50:42.908Z,99934.41
2022-11-04T03:53:12.592Z,99935.03
2022-11-04T03:55:52.883Z,99929.34
2022-11-04T03:58:31.917Z,99928.47
2022-11-04T04:01:06.125Z,99923.41
2022-11-04T04:03:41.449Z,99919.34
2022-11-04T04:06:14.083Z,99917.72
2022-11-04T04:08:47.457Z,99927.91
2022-11-04T04:11:21.936Z,99921.53
2022-11-04T04:13:57.867Z,99915.66
2022-11-04T04:16:33.435Z,99919.03
2022-11-04T04:19:05.355Z,99925.03
2022-11-04T04:21:38.568Z,99936.06
2022-11-04T04:24:27.898Z,99944.78
2022-11-04T04:27:14.592Z,99943.88
2022-11-04T04:29:44.766Z,99934.50
2022-11-04T04:32:15.045Z,99927.94
2022-11-04T04:34:42.699Z,99927.84
2022-11-04T04:37:15.016Z,99925.81
2022-11-04T04:40:11.487Z,99914.44
2022-11-04T04:42:57.340Z,99921.59
2022-11-04T04:45:30.031Z,99911.25
2022-11-04T04:47:59.132Z,99906.88
2022-11-04T04:50:29.934Z,99898.13
2022-11-04T04:52:58.885Z,99908.63
2022-11-04T04:55:26.466Z,99902.50
2022-11-04T04:57:53.899Z,99925.69
2022-11-04T05:00:21.921Z,99929.94
2022-11-04T05:02:50.007Z,99925.78
2022-11-04T05:05:19.680Z,99929.28
2022-11-04T05:07:47.577Z,99927.47
2022-11-04T05:10:16.063Z,99921.38
2022-11-04T05:13:01.667Z,99927.31
2022-11-04T05:15:31.019Z,99931.78
2022-11-04T05:18:00.246Z,99936.06
2022-11-04T05:20:30.245Z,99933.56
2022-11-04T05:22:57.733Z,99938.63
2022-11-04T05:25:25.121Z,99944.56
2022-11-04T05:27:52.578Z,99939.28
2022-11-04T05:30:20.034Z,99944.59
2022-11-04T05:32:47.473Z,99942.94
2022-11-04T05:35:15.038Z,99946.38
2022-11-04T05:37:43.782Z,99943.63
2022-11-04T05:40:12.478Z,99951.59
2022-11-04T05:42:39.874Z,99948.19
2022-11-04T05:45:08.238Z,99967.09
2022-11-04T05:47:35.630Z,99963.59
2022-11-04T05:50:03.006Z,99968.75
2022-11-04T05:52:30.438Z,99968.78
2022-11-04T05:54:59.224Z,99973.00
2022-11-04T05:57:26.694Z,99969.50
2022-11-04T05:59:54.089Z,99980.69
2022-11-04T06:02:21.549Z,99975.66
2022-11-04T06:04:49.163Z,99979.00
2022-11-04T06:07:16.563Z,99982.06
2022-11-04T06:09:43.956Z,99979.28
2022-11-04T06:12:15.311Z,99985.97
2022-11-04T06:14:43.136Z,99994.50
2022-11-04T06:17:14.912Z,99989.09
2022-11-04T06:19:42.298Z,99999.13
2022-11-04T06:22:10.359Z,100004.25
2022-11-04T06:24:37.759Z,100010.06
2022-11-04T06:27:05.336Z,100011.75
2022-11-04T06:29:34.358Z,100013.59
2022-11-04T06:32:01.730Z,100009.16
2022-11-04T06:34:29.127Z,100010.91
2022-11-04T06:36:56.600Z,100009.91
2022-11-04T06:39:23.998Z,100020.25
2022-11-04T06:41:51.886Z,100020.72
2022-11-04T06:44:20.428Z,100018.69
2022-11-04T06:46:49.174Z,100028.22
2022-11-04T06:49:18.794Z,100026.59
2022-11-04T06:51:46.324Z,100030.63
2022-11-04T06:54:14.305Z,100036.84
2022-11-04T06:56:42.013Z,100032.72
2022-11-04T06:59:13.643Z,100044.38
2022-11-04T07:01:41.190Z,100044.22
2022-11-04T07:04:10.653Z,100046.88
2022-11-04T07:06:39.819Z,100046.25
2022-11-04T07:09:12.689Z,100054.50
2022-11-04T07:11:40.800Z,100055.16
2022-11-04T07:14:08.832Z,100048.16
2022-11-04T07:16:36.267Z,100052.84
2022-11-04T07:19:04.111Z,100055.25
2022-11-04T07:21:33.155Z,100049.31
2022-11-04T07:24:01.757Z,100051.88
2022-11-04T07:26:29.177Z,100043.75
2022-11-04T07:28:56.591Z,100040.47
2022-11-04T07:31:24.355Z,100043.13
2022-11-04T07:33:51.743Z,100036.97
2022-11-04T07:36:20.063Z,100037.78
2022-11-04T07:38:49.252Z,100030.88
2022-11-04T07:41:18.116Z,100046.25
2022-11-04T07:43:49.580Z,100046.31
2022-11-04T07:46:17.165Z,100040.25
2022-11-04T07:48:44.627Z,100039.34
2022-11-04T07:51:14.841Z,100035.03
2022-11-04T07:53:42.528Z,100030.78
2022-11-04T07:56:12.865Z,100030.69
2022-11-04T07:58:41.045Z,100030.66
2022-11-04T08:01:10.463Z,100020.88
2022-11-04T08:03:38.362Z,100015.66
2022-11-04T08:06:08.692Z,100018.88
2022-11-04T08:08:37.365Z,100024.97
2022-11-04T08:11:08.742Z,100021.56
2022-11-04T08:13:39.763Z,100013.72
2022-11-04T08:16:12.389Z,100012.06
2022-11-04T08:18:40.725Z,100018.72
2022-11-04T08:21:08.850Z,100015.34
2022-11-04T08:23:36.455Z,100028.16
2022-11-04T08:26:09.055Z,100034.25
2022-11-04T08:28:36.519Z,100050.91
2022-11-04T08:31:07.835Z,100044.13
2022-11-04T08:33:36.278Z,100037.97
2022-11-04T08:36:06.232Z,100030.50
2022-11-04T08:38:34.409Z,100032.78
2022-11-04T08:41:03.788Z,100042.81
2022-11-04T08:43:32.482Z,100053.22
2022-11-04T08:45:59.936Z,100060.31
2022-11-04T08:48:28.741Z,100066.53
2022-11-04T08:50:58.871Z,100057.19
2022-11-04T08:53:27.216Z,100053.72
2022-11-04T08:55:55.053Z,100057.47
2022-11-04T08:58:24.812Z,100059.38
2022-11-04T09:00:52.604Z,100063.69
2022-11-04T09:03:20.231Z,100061.16
2022-11-04T09:05:49.224Z,100063.88
2022-11-04T09:08:18.458Z,100065.59
2022-11-04T09:10:47.833Z,100053.09
2022-11-04T09:13:16.662Z,100051.38
2022-11-04T09:15:44.298Z,100048.81
2022-11-04T09:18:12.150Z,100047.31
2022-11-04T09:20:39.690Z,100037.25
2022-11-04T09:23:09.155Z,100024.97
2022-11-04T09:25:37.777Z,100025.66
2022-11-04T09:28:05.682Z,100017.13
2022-11-04T09:30:33.190Z,100027.78
2022-11-04T09:33:00.916Z,100040.78
2022-11-04T09:35:28.420Z,100033.31
2022-11-04T09:37:56.240Z,100032.06
2022-11-04T09:40:26.339Z,100033.81
2022-11-04T09:43:07.891Z,100028.22
2022-11-04T09:45:40.050Z,100029.72
2022-11-04T09:48:12.378Z,100034.31
2022-11-04T09:50:46.379Z,100029.94
2022-11-04T09:53:18.644Z,100028.09
2022-11-04T09:55:53.756Z,100038.88
2022-11-04T09:58:21.243Z,100038.84
2022-11-04T10:00:58.317Z,100027.13
2022-11-04T10:03:42.774Z,100041.94
2022-11-04T10:06:26.139Z,100060.44
2022-11-04T10:09:06.362Z,100073.41
2022-11-04T10:11:43.958Z,100081.59
2022-11-04T10:14:26.006Z,100094.03
2022-11-04T10:17:07.342Z,100092.44
2022-11-04T10:19:45.929Z,100093.13
2022-11-04T10:22:23.241Z,100072.81
2022-11-04T10:25:02.729Z,100076.25
2022-11-04T10:27:36.063Z,100065.16
2022-11-04T10:30:08.179Z,100077.75
2022-11-04T10:32:40.435Z,100082.47
2022-11-04T10:35:20.651Z,100075.81
2022-11-04T10:37:53.167Z,100091.88
2022-11-04T10:40:25.855Z,100096.25
2022-11-04T10:42:55.479Z,100108.41
2022-11-04T10:45:30.178Z,100102.22
2022-11-04T10:48:02.398Z,100105.63
2022-11-04T10:50:37.521Z,100103.19
2022-11-04T10:53:14.046Z,100105.19
2022-11-04T10:55:47.924Z,100094.13
2022-11-04T10:58:22.331Z,100073.69
2022-11-04T11:00:50.180Z,100080.63
2022-11-04T11:03:30.756Z,100095.00
2022-11-04T11:06:14.510Z,100112.72
2022-11-04T11:08:43.227Z,100121.63
2022-11-04T11:11:11.096Z,100120.78
2022-11-04T11:13:41.785Z,100121.81
2022-11-04T11:16:13.208Z,100125.75
2022-11-04T11:18:42.006Z,100132.56
2022-11-04T11:21:13.555Z,100137.38
2022-11-04T11:23:43.798Z,100144.34
2022-11-04T11:26:15.252Z,100152.03
2022-11-04T11:28:54.414Z,100143.22
2022-11-04T11:31:26.739Z,100153.34
2022-11-04T11:33:58.496Z,100151.84
2022-11-04T11:36:27.838Z,100159.28
2022-11-04T11:39:01.088Z,100164.31
2022-11-04T11:41:32.231Z,100169.03
2022-11-04T11:44:05.546Z,100170.50
2022-11-04T11:46:35.119Z,100174.97
2022-11-04T11:49:05.021Z,100165.09
2022-11-04T11:51:35.217Z,100163.56
2022-11-04T11:54:15.606Z,100164.19
2022-11-04T11:57:12.059Z,100164.47
2022-11-04T12:02:41.700Z,100160.84
2022-11-04T12:11:07.963Z,100150.41
2022-11-04T12:13:40.482Z,100154.63
2022-11-04T12:16:22.289Z,100148.59
2022-11-04T12:19:11.831Z,100138.91
2022-11-04T12:21:45.544Z,100144.34
2022-11-04T12:24:27.523Z,100142.19
2022-11-04T12:27:03.666Z,100143.06
2022-11-04T12:29:47.092Z,100151.69
2022-11-04T12:32:28.644Z,100150.25
2022-11-04T12:35:12.490Z,100150.69
2022-11-04T12:37:53.126Z,100152.56
2022-11-04T12:40:22.997Z,100149.06
2022-11-04T12:43:13.302Z,100150.81
2022-11-04T12:45:54.141Z,100158.56
2022-11-04T12:48:40.551Z,100157.16
2022-11-04T12:51:16.967Z,100161.25
2022-11-04T12:54:02.893Z,100153.41
2022-11-04T12:56:38.215Z,100148.31
2022-11-04T12:59:31.370Z,100163.72
2022-11-04T13:02:03.856Z,100163.94
2022-11-04T13:04:38.338Z,100165.94
2022-11-04T13:07:11.267Z,100167.63
2022-11-04T13:09:43.334Z,100175.31
2022-11-04T13:12:14.838Z,100171.16
2022-11-04T13:14:48.104Z,100170.38
2022-11-04T13:17:20.386Z,100171.00
2022-11-04T13:19:52.185Z,100176.00
2022-11-04T13:22:23.030Z,100183.38
2022-11-04T13:24:56.383Z,100184.00
2022-11-04T13:27:27.312Z,100182.34
2022-11-04T13:30:06.486Z,100181.59
2022-11-04T13:32:41.730Z,100183.44
2022-11-04T13:35:20.209Z,100193.56
2022-11-04T13:37:56.715Z,100193.41
2022-11-04T13:40:28.982Z,100190.91
2022-11-04T13:43:26.694Z,100181.63
2022-11-04T13:45:56.933Z,100189.28
2022-11-04T13:48:28.354Z,100180.78
2022-11-04T13:51:00.949Z,100184.88
2022-11-04T13:53:47.898Z,100184.94
2022-11-04T13:56:35.212Z,100188.22
2022-11-04T13:59:19.697Z,100191.59
2022-11-04T14:01:47.589Z,100184.69
2022-11-04T14:04:30.483Z,100186.81
2022-11-04T14:07:01.728Z,100180.53
2022-11-04T14:09:36.798Z,100186.31
2022-11-04T14:12:30.502Z,100188.09
2022-11-04T14:15:10.843Z,100191.53
2022-11-04T14:18:03.552Z,100187.97
2022-11-04T14:20:34.207Z,100193.94
2022-11-04T14:23:04.760Z,100196.66
2022-11-04T14:25:35.772Z,100190.69
2022-11-04T14:28:17.112Z,100187.22
2022-11-04T14:30:49.291Z,100191.44
2022-11-04T14:33:30.170Z,100195.16
2022-11-04T14:36:14.225Z,100189.97
2022-11-04T14:38:44.211Z,100193.28
2022-11-04T14:41:22.494Z,100199.94
2022-11-04T14:43:50.635Z,100205.88
2022-11-04T14:46:24.262Z,100201.63
2022-11-04T14:48:55.741Z,100203.19
2022-11-04T14:51:28.852Z,100209.06
2022-11-04T14:54:06.097Z,100213.28
2022-11-04T14:56:33.894Z,100219.16
2022-11-04T14:59:05.364Z,100214.16
2022-11-04T15:01:35.907Z,100207.41
2022-11-04T15:04:12.253Z,100216.72
2022-11-04T15:06:54.024Z,100222.88
2022-11-04T15:09:25.776Z,100222.88
2022-11-04T15:12:16.971Z,100225.53
2022-11-04T15:14:44.345Z,100228.53
2022-11-04T15:17:18.854Z,100228.84
2022-11-04T15:19:49.997Z,100230.19
2022-11-04T15:22:17.424Z,100221.22
2022-11-04T15:24:46.346Z,100228.16
2022-11-04T15:27:17.458Z,100224.97
2022-11-04T15:29:54.974Z,100231.94
2022-11-04T15:32:26.406Z,100230.31
2022-11-04T15:34:54.987Z,100238.66
2022-11-04T15:37:24.255Z,100242.97
2022-11-04T15:39:56.071Z,100246.56
2022-11-04T15:42:40.471Z,100251.81
2022-11-04T15:45:39.687Z,100245.94
2022-11-04T15:48:29.752Z,100247.72
2022-11-04T15:51:14.935Z,100247.44
2022-11-04T15:53:51.557Z,100241.47
2022-11-04T15:56:23.023Z,100243.25
2022-11-04T15:58:51.880Z,100239.63
2022-11-04T16:01:20.799Z,100249.31
2022-11-04T16:03:54.261Z,100255.22
2022-11-04T16:06:34.820Z,100252.75
2022-11-04T16:09:05.387Z,100256.09
2022-11-04T16:11:34.271Z,100256.75
2022-11-04T16:14:23.210Z,100264.66
2022-11-04T16:16:53.331Z,100276.63
2022-11-04T16:19:23.581Z,100276.81
2022-11-04T16:22:00.356Z,100265.50
2022-11-04T16:24:30.210Z,100261.25
2022-11-04T16:26:59.342Z,100268.19
2022-11-04T16:29:29.417Z,100276.91
2022-11-04T16:32:16.849Z,100283.06
2022-11-04T16:34:45.743Z,100284.66
2022-11-04T16:37:13.652Z,100294.16
2022-11-04T16:39:43.660Z,100290.66
2022-11-04T16:42:13.616Z,100297.75
2022-11-04T16:44:41.472Z,100304.50
2022-11-04T16:47:11.457Z,100306.31
2022-11-04T16:49:39.801Z,100307.34
2022-11-04T16:52:14.071Z,100309.00
2022-11-04T16:54:42.003Z,100308.03
2022-11-04T16:57:14.117Z,100307.06
2022-11-04T16:59:42.047Z,100320.13
2022-11-04T17:02:26.897Z,100321.91
2022-11-04T17:04:54.345Z,100321.91
2022-11-04T17:07:30.523Z,100317.72
2022-11-04T17:10:16.189Z,100311.59
2022-11-04T17:12:45.417Z,100321.91
2022-11-04T17:15:13.712Z,100320.13
2022-11-04T17:17:41.869Z,100327.09
2022-11-04T17:20:13.078Z,100327.13
2022-11-04T17:22:40.690Z,100332.97
2022-11-04T17:25:16.920Z,100335.00
2022-11-04T17:27:45.784Z,100334.00
2022-11-04T17:30:14.547Z,100330.50
2022-11-04T17:32:42.147Z,100328.69
2022-11-04T17:35:10.386Z,100332.25
2022-11-04T17:37:38.222Z,100335.75
2022-11-04T17:40:06.981Z,100344.47
2022-11-04T17:42:52.123Z,100340.84
2022-11-04T17:45:20.927Z,100354.50
2022-11-04T17:47:48.510Z,100348.47
2022-11-04T17:50:15.958Z,100347.81
2022-11-04T17:52:44.063Z,100352.19
2022-11-04T17:55:16.727Z,100359.81
2022-11-04T17:57:45.436Z,100350.44
2022-11-04T18:00:14.364Z,100359.88
2022-11-04T18:02:43.607Z,100358.91
2022-11-04T18:05:11.116Z,100362.34
2022-11-04T18:07:38.604Z,100360.44
2022-11-04T18:10:07.151Z,100363.06
2022-11-04T18:12:41.514Z,100366.66
2022-11-04T18:15:11.968Z,100366.75
2022-11-04T18:17:40.245Z,100367.56
2022-11-04T18:20:14.026Z,100376.16
2022-11-04T18:22:41.997Z,100375.25
2022-11-04T18:25:10.233Z,100371.78
2022-11-04T18:27:37.729Z,100372.63
2022-11-04T18:30:06.539Z,100379.53
2022-11-04T18:32:34.261Z,100377.00
2022-11-04T18:35:01.839Z,100381.31
2022-11-04T18:37:30.559Z,100380.59
2022-11-04T18:39:57.965Z,100390.00
2022-11-04T18:42:25.526Z,100391.75
2022-11-04T18:44:52.926Z,100384.81
2022-11-04T18:47:20.398Z,100390.94
2022-11-04T18:49:48.107Z,100384.09
2022-11-04T18:52:15.475Z,100383.16
2022-11-04T18:54:45.102Z,100383.97
2022-11-04T18:57:12.864Z,100387.47
2022-11-04T18:59:40.744Z,100384.06
2022-11-04T19:02:16.573Z,100384.88
2022-11-04T19:04:44.128Z,100388.38
2022-11-04T19:07:11.597Z,100384.84
2022-11-04T19:09:46.810Z,100390.94
2022-11-04T19:12:33.875Z,100383.16
2022-11-04T19:15:01.290Z,100398.72
2022-11-04T19:17:28.723Z,100396.06
2022-11-04T19:19:56.117Z,100400.41
2022-11-04T19:22:23.527Z,100405.56
2022-11-04T19:24:50.934Z,100397.75
2022-11-04T19:27:21.606Z,100406.31
2022-11-04T19:29:49.406Z,100407.28
2022-11-04T19:32:16.827Z,100412.44
2022-11-04T19:34:44.353Z,100416.75
2022-11-04T19:37:12.358Z,100414.97
2022-11-04T19:39:39.881Z,100409.84
2022-11-04T19:42:24.921Z,100409.84
2022-11-04T19:44:53.629Z,100413.31
2022-11-04T19:47:21.018Z,100413.28
2022-11-04T19:49:48.434Z,100403.84
2022-11-04T19:52:15.891Z,100408.16
2022-11-04T19:54:43.273Z,100410.78
2022-11-04T19:57:10.637Z,100413.34
2022-11-04T19:59:38.163Z,100404.69
2022-11-04T20:02:07.337Z,100405.56
2022-11-04T20:04:34.870Z,100412.44
2022-11-04T20:07:02.601Z,100408.13
2022-11-04T20:09:30.079Z,100406.44
2022-11-04T20:12:14.993Z,100415.91
2022-11-04T20:14:42.478Z,100427.97
2022-11-04T20:17:11.259Z,100427.09
2022-11-04T20:19:38.703Z,100434.84
2022-11-04T20:22:06.182Z,100435.72
2022-11-04T20:24:33.615Z,100431.34
2022-11-04T20:27:00.993Z,100437.28
2022-11-04T20:29:28.401Z,100436.41
2022-11-04T20:31:55.784Z,100439.09
2022-11-04T20:34:27.657Z,100439.09
2022-11-04T20:37:00.381Z,100432.25
2022-11-04T20:39:27.813Z,100427.91
2022-11-04T20:41:55.211Z,100433.97
2022-11-04T20:44:22.651Z,100440.00
2022-11-04T20:46:50.050Z,100445.19
2022-11-04T20:49:17.591Z,100449.47
2022-11-04T20:51:54.528Z,100459.78
2022-11-04T20:54:22.850Z,100454.63
2022-11-04T20:56:50.347Z,100451.97
2022-11-04T20:59:18.304Z,100460.63
2022-11-04T21:01:48.256Z,100457.19
2022-11-04T21:04:18.240Z,100466.66
2022-11-04T21:06:48.577Z,100467.53
2022-11-04T21:09:17.517Z,100470.09
2022-11-04T21:11:44.897Z,100471.84
2022-11-04T21:14:14.640Z,100475.28
2022-11-04T21:16:42.694Z,100475.25
2022-11-04T21:19:11.873Z,100473.56
2022-11-04T21:21:42.006Z,100482.19
2022-11-04T21:24:13.226Z,100480.47
2022-11-04T21:26:40.878Z,100486.50
2022-11-04T21:29:11.966Z,100487.31
2022-11-04T21:31:39.987Z,100478.75
2022-11-04T21:34:07.670Z,100478.75
2022-11-04T21:36:35.670Z,100485.63
2022-11-04T21:39:03.418Z,100493.38
2022-11-04T21:41:37.030Z,100485.63
2022-11-04T21:44:08.221Z,100481.28
2022-11-04T21:46:36.406Z,100486.44
2022-11-04T21:49:04.091Z,100484.72
2022-11-04T21:51:34.198Z,100487.28
2022-11-04T21:54:01.626Z,100500.19
2022-11-04T21:56:32.931Z,100492.44
2022-11-04T21:59:02.537Z,100487.25
2022-11-04T22:01:31.326Z,100487.31
2022-11-04T22:04:00.466Z,100488.19
2022-11-04T22:06:33.555Z,100500.25
2022-11-04T22:09:02.112Z,100501.09
2022-11-04T22:11:31.198Z,100504.56
2022-11-04T22:14:00.329Z,100497.66
2022-11-04T22:16:31.239Z,100495.03
2022-11-04T22:19:00.435Z,100502.81
2022-11-04T22:21:32.499Z,100507.09
2022-11-04T22:24:01.137Z,100504.50
2022-11-04T22:26:31.422Z,100509.72
2022-11-04T22:28:59.788Z,100507.94
2022-11-04T22:31:31.494Z,100506.22
2022-11-04T22:34:00.709Z,100507.94
2022-11-04T22:36:28.702Z,100515.69
2022-11-04T22:38:56.277Z,100528.69
2022-11-04T22:41:25.494Z,100522.63
2022-11-04T22:43:53.014Z,100516.59
2022-11-04T22:46:22.781Z,100521.75
2022-11-04T22:48:51.747Z,100513.16
2022-11-04T22:51:19.187Z,100513.13
2022-11-04T22:53:55.061Z,100518.28
2022-11-04T22:56:23.619Z,100522.63
2022-11-04T22:58:52.060Z,100528.69
2022-11-04T23:01:22.359Z,100525.25
2022-11-04T23:03:52.482Z,100532.06
2022-11-04T23:06:20.649Z,100528.59
2022-11-04T23:08:48.456Z,100538.91
2022-11-04T23:11:36.028Z,100540.69
2022-11-04T23:14:21.398Z,100544.09
2022-11-04T23:17:08.624Z,100544.13
2022-11-04T23:19:37.859Z,100544.09
2022-11-04T23:22:22.819Z,100545.84
2022-11-04T23:25:11.524Z,100542.41
2022-11-04T23:28:01.192Z,100545.03
2022-11-04T23:30:31.312Z,100548.31
2022-11-04T23:33:00.367Z,100553.47
2022-11-04T23:35:49.449Z,100554.31
2022-11-04T23:38:17.643Z,100557.66
2022-11-04T23:41:06.651Z,100551.59
2022-11-04T23:43:34.746Z,100543.97
2022-11-04T23:46:19.873Z,100547.53
2022-11-04T23:49:04.908Z,100547.53
2022-11-04T23:51:51.197Z,100563.13
2022-11-04T23:54:36.625Z,100560.53
2022-11-04T23:57:30.089Z,100558.78
